Terminal Aerodrome Forecast
Issued by NWS

Home | Current Version | Previous Version | Text Only | Print | Product List | Glossary On
Versions: 1 2 3 4 5 6 7 8 9 10 11 12
224
FTUS42 TJSJ 220520
TAFJPS
TAF
TJPS 220520Z 2206/2306 12004KT P6SM FEW030
     FM221450 11012KT P6SM SCT030
     FM222300 05003KT P6SM FEW030=

USA.gov is the U.S. government's official web portal to all federal, state and local government web resources and services.